createdAt,value
2018-12-17T00:00:19.278Z,9.4
2018-12-17T00:02:18.933Z,10.1
2018-12-17T00:04:18.579Z,9.2
2018-12-17T00:06:18.819Z,12.1
2018-12-17T00:08:18.463Z,9.7
2018-12-17T00:10:18.578Z,9.9
2018-12-17T00:12:19.229Z,13.4
2018-12-17T00:14:18.897Z,12.2
2018-12-17T00:16:18.692Z,12.3
2018-12-17T00:18:19.380Z,10.2
2018-12-17T00:20:19.028Z,10.3
2018-12-17T00:22:18.646Z,11.6
2018-12-17T00:24:19.233Z,10.8
2018-12-17T00:26:19.169Z,12.5
2018-12-17T00:28:18.780Z,11.6
2018-12-17T00:30:18.507Z,10.9
2018-12-17T00:32:19.147Z,10.7
2018-12-17T00:34:18.842Z,11.6
2018-12-17T00:36:19.118Z,11.3
2018-12-17T00:38:18.767Z,12.7
2018-12-17T00:40:18.874Z,10.3
2018-12-17T00:42:18.487Z,11.5
2018-12-17T00:44:19.142Z,11.2
2018-12-17T00:46:19.392Z,10.7
2018-12-17T00:48:19.007Z,10.1
2018-12-17T00:50:18.651Z,12.2
2018-12-17T00:52:19.275Z,12.1
2018-12-17T00:54:18.879Z,11
2018-12-17T00:56:18.998Z,12
2018-12-17T00:58:18.607Z,11.8
2018-12-17T01:00:19.254Z,11.3
2018-12-17T01:02:18.881Z,11.1
2018-12-17T01:04:18.526Z,10.6
2018-12-17T01:06:19.327Z,11
2018-12-17T01:08:18.986Z,13.4
2018-12-17T01:10:19.064Z,9.9
2018-12-17T01:12:18.680Z,11.9
2018-12-17T01:14:19.298Z,11.8
2018-12-17T01:16:19.051Z,11.6
2018-12-17T01:18:18.766Z,9.5
2018-12-17T01:20:19.400Z,10.8
2018-12-17T01:22:19.048Z,11.3
2018-12-17T01:24:18.695Z,11.1
2018-12-17T01:26:18.984Z,11.3
2018-12-17T01:28:22.055Z,12.4
2018-12-17T01:30:19.057Z,11.6
2018-12-17T01:32:18.698Z,10.7
2018-12-17T01:34:19.308Z,10.8
2018-12-17T01:36:18.555Z,10.6
2018-12-17T01:38:19.186Z,12.5
2018-12-17T01:40:19.359Z,11.7
2018-12-17T01:42:19.000Z,10
2018-12-17T01:44:18.605Z,11.6
2018-12-17T01:46:19.365Z,12
2018-12-17T01:48:18.998Z,10.9
2018-12-17T01:50:18.647Z,10.9
2018-12-17T01:52:19.269Z,11.1
2018-12-17T01:54:18.908Z,10.7
2018-12-17T01:56:19.232Z,11
2018-12-17T01:58:18.855Z,10.9
2018-12-17T02:00:18.477Z,11.4
2018-12-17T02:02:19.068Z,11.7
2018-12-17T02:04:18.671Z,10.4
2018-12-17T02:06:18.997Z,12
2018-12-17T02:08:18.629Z,12.3
2018-12-17T02:10:18.791Z,12.2
2018-12-17T02:12:19.419Z,10.3
2018-12-17T02:14:19.021Z,12.2
2018-12-17T02:16:19.341Z,10.2
2018-12-17T02:18:19.054Z,11.3
2018-12-17T02:20:18.712Z,12.6
2018-12-17T02:22:19.347Z,10
2018-12-17T02:24:18.970Z,11.4
2018-12-17T02:26:18.728Z,13.3
2018-12-17T02:28:18.419Z,10.6
2018-12-17T02:30:19.121Z,10.7
2018-12-17T02:32:18.765Z,11.2
2018-12-17T02:34:19.376Z,11.1
2018-12-17T02:36:19.127Z,10.5
2018-12-17T02:38:18.742Z,11.6
2018-12-17T02:40:18.885Z,11.6
2018-12-17T02:42:18.504Z,11.7
2018-12-17T02:44:19.112Z,11.9
2018-12-17T02:46:19.339Z,10.3
2018-12-17T02:48:18.987Z,11.8
2018-12-17T02:50:18.614Z,12.1
2018-12-17T02:52:19.232Z,12.3
2018-12-17T02:54:18.864Z,11.5
2018-12-17T02:56:18.910Z,12.2
2018-12-17T02:58:18.531Z,11.2
2018-12-17T03:00:19.172Z,12
2018-12-17T03:02:18.784Z,11
2018-12-17T03:04:19.407Z,12.3
2018-12-17T03:06:18.706Z,11.3
2018-12-17T03:08:19.342Z,11.9
2018-12-17T03:10:18.468Z,11.1
2018-12-17T03:12:19.138Z,11.5
2018-12-17T03:14:18.750Z,10.9
2018-12-17T03:16:19.064Z,11.8
2018-12-17T03:18:18.829Z,13.7
2018-12-17T03:20:18.456Z,11.3
2018-12-17T03:22:19.089Z,12.8
2018-12-17T03:24:18.713Z,13
2018-12-17T03:26:19.008Z,11.8
2018-12-17T03:28:18.643Z,11.7
2018-12-17T03:30:19.307Z,12.2
2018-12-17T03:32:18.987Z,11.7
2018-12-17T03:34:18.661Z,10.6
2018-12-17T03:36:18.926Z,11
2018-12-17T03:38:18.550Z,11.3
2018-12-17T03:40:18.717Z,11.5
2018-12-17T03:42:19.323Z,11.1
2018-12-17T03:44:18.944Z,11.4
2018-12-17T03:46:19.264Z,11.4
2018-12-17T03:48:18.858Z,13
2018-12-17T03:50:18.498Z,11.5
2018-12-17T03:52:19.104Z,11.3
2018-12-17T03:54:18.707Z,12.3
2018-12-17T03:56:18.452Z,10.9
2018-12-17T03:58:19.070Z,12.1
2018-12-17T04:00:18.686Z,11.9
2018-12-17T04:02:19.303Z,13.4
2018-12-17T04:04:18.908Z,10.8
2018-12-17T04:06:19.177Z,11.7
2018-12-17T04:08:18.783Z,11.5
2018-12-17T04:10:18.906Z,12.4
2018-12-17T04:12:18.544Z,10.5
2018-12-17T04:14:19.177Z,10.9
2018-12-17T04:16:18.541Z,14.2
2018-12-17T04:18:19.242Z,12.9
2018-12-17T04:20:18.884Z,10.9
2018-12-17T04:22:18.494Z,10.9
2018-12-17T04:24:19.173Z,12.8
2018-12-17T04:26:18.508Z,11.5
2018-12-17T04:28:19.153Z,12.2
2018-12-17T04:30:18.817Z,12
2018-12-17T04:32:18.439Z,12.1
2018-12-17T04:34:19.052Z,11
2018-12-17T04:36:18.966Z,12.2
2018-12-17T04:38:18.602Z,12.3
2018-12-17T04:40:18.693Z,11.9
2018-12-17T04:42:19.312Z,10.1
2018-12-17T04:44:18.951Z,10.6
2018-12-17T04:46:18.738Z,12.9
2018-12-17T04:48:19.372Z,11.1
2018-12-17T04:50:18.999Z,11.8
2018-12-17T04:52:18.637Z,11.1
2018-12-17T04:54:19.263Z,12.7
2018-12-17T04:56:18.515Z,11.3
2018-12-17T04:58:19.124Z,11.5
2018-12-17T05:00:18.731Z,14.7
2018-12-17T05:02:19.365Z,12.2
2018-12-17T05:04:19.019Z,13
2018-12-17T05:06:18.758Z,13.4
2018-12-17T05:08:19.383Z,11.1
2018-12-17T05:10:18.498Z,12.6
2018-12-17T05:12:19.157Z,11.9
2018-12-17T05:14:18.767Z,12
2018-12-17T05:16:18.664Z,12.6
2018-12-17T05:18:19.380Z,12.7
2018-12-17T05:20:19.079Z,12.3
2018-12-17T05:22:18.709Z,11.2
2018-12-17T05:24:19.349Z,11
2018-12-17T05:26:18.847Z,12.3
2018-12-17T05:28:18.483Z,11.8
2018-12-17T05:30:19.129Z,11
2018-12-17T05:32:18.738Z,12.8
2018-12-17T05:34:19.383Z,12.7
2018-12-17T05:36:19.158Z,11.7
2018-12-17T05:38:18.810Z,11.3
2018-12-17T05:40:18.898Z,13.1
2018-12-17T05:42:18.523Z,10.9
2018-12-17T05:44:19.122Z,13.5
2018-12-17T05:46:19.352Z,12.1
2018-12-17T05:48:18.957Z,11.6
2018-12-17T05:50:18.598Z,11.8
2018-12-17T05:52:19.222Z,14
2018-12-17T05:54:18.909Z,11.9
2018-12-17T05:56:18.690Z,13.6
2018-12-17T05:58:19.336Z,11.1
2018-12-17T06:00:19.014Z,12.4
2018-12-17T06:02:18.675Z,11.8
2018-12-17T06:04:19.297Z,12.2
2018-12-17T06:06:19.119Z,11
2018-12-17T06:08:18.739Z,11.7
2018-12-17T06:10:18.837Z,11.3
2018-12-17T06:12:18.457Z,11
2018-12-17T06:14:19.086Z,12.2
2018-12-17T06:16:19.388Z,11.2
2018-12-17T06:18:19.113Z,11.2
2018-12-17T06:20:18.724Z,12.5
2018-12-17T06:22:19.339Z,12.3
2018-12-17T06:24:18.971Z,10.6
2018-12-17T06:26:18.907Z,10
2018-12-17T06:28:18.513Z,10.8
2018-12-17T06:30:19.131Z,12.2
2018-12-17T06:32:18.749Z,11.2
2018-12-17T06:34:19.378Z,12.5
2018-12-17T06:36:19.249Z,12.4
2018-12-17T06:38:18.884Z,12.1
2018-12-17T06:40:19.016Z,12.4
2018-12-17T06:42:18.670Z,12.5
2018-12-17T06:44:19.290Z,11.9
2018-12-17T06:46:18.493Z,13.7
2018-12-17T06:48:19.167Z,11.1
2018-12-17T06:50:18.814Z,11.7
2018-12-17T06:52:18.463Z,11.7
2018-12-17T06:54:19.103Z,12
2018-12-17T06:56:18.760Z,11.1
2018-12-17T06:58:19.387Z,11.2
2018-12-17T07:00:19.004Z,11.5
2018-12-17T07:02:18.642Z,13.6
2018-12-17T07:04:19.285Z,12.6
2018-12-17T07:06:18.565Z,12
2018-12-17T07:08:19.181Z,11.7
2018-12-17T07:10:19.289Z,12.2
2018-12-17T07:12:18.907Z,13.2
2018-12-17T07:14:18.540Z,11.8
2018-12-17T07:16:18.746Z,12.5
2018-12-17T07:18:18.465Z,12.7
2018-12-17T07:20:19.095Z,12.9
2018-12-17T07:22:18.711Z,12.9
2018-12-17T07:24:19.361Z,13.1
2018-12-17T07:26:18.646Z,11.2
2018-12-17T07:28:19.265Z,12.4
2018-12-17T07:30:18.891Z,13.1
2018-12-17T07:32:18.744Z,12.9
2018-12-17T07:34:19.430Z,12.8
2018-12-17T07:36:19.440Z,11.2
2018-12-17T07:38:19.077Z,12.9
2018-12-17T07:40:19.223Z,16.4
2018-12-17T07:42:18.846Z,16.7
2018-12-17T07:44:18.522Z,16
2018-12-17T07:46:19.324Z,13.1
2018-12-17T07:48:18.968Z,13.5
2018-12-17T07:50:18.592Z,11.8
2018-12-17T07:52:19.222Z,12.6
2018-12-17T07:54:18.849Z,13.1
2018-12-17T07:56:18.822Z,13.3
2018-12-17T07:58:18.450Z,12.2
2018-12-17T08:00:19.121Z,13
2018-12-17T08:02:18.738Z,12.3
2018-12-17T08:04:19.360Z,11.4
2018-12-17T08:06:19.134Z,10.5
2018-12-17T08:08:18.788Z,11.9
2018-12-17T08:10:18.913Z,12.4
2018-12-17T08:12:18.563Z,13.8
2018-12-17T08:14:19.169Z,13
2018-12-17T08:16:19.393Z,12.1
2018-12-17T08:18:19.112Z,11.1
2018-12-17T08:20:18.748Z,12
2018-12-17T08:22:19.366Z,12.4
2018-12-17T08:24:18.989Z,12
2018-12-17T08:26:18.790Z,14.2
2018-12-17T08:28:18.424Z,13.3
2018-12-17T08:30:19.050Z,11.5
2018-12-17T08:32:18.672Z,12.9
2018-12-17T08:34:19.269Z,13.8
2018-12-17T08:36:19.022Z,12.4
2018-12-17T08:38:18.620Z,13.8
2018-12-17T08:40:18.735Z,13.7
2018-12-17T08:42:19.371Z,14.1
2018-12-17T08:44:19.002Z,12.5
2018-12-17T08:46:18.758Z,12.2
2018-12-17T08:48:19.385Z,13.2
2018-12-17T08:50:19.047Z,12.5
2018-12-17T08:52:18.678Z,12
2018-12-17T08:54:19.289Z,13.2
2018-12-17T08:56:18.598Z,11.9
2018-12-17T08:58:19.204Z,13.1
2018-12-17T09:00:18.840Z,13.5
2018-12-17T09:02:18.495Z,13.7
2018-12-17T09:04:19.159Z,13.4
2018-12-17T09:06:18.895Z,13.4
2018-12-17T09:08:18.492Z,13.1
2018-12-17T09:10:18.603Z,16.3
2018-12-17T09:12:19.208Z,13.5
2018-12-17T09:14:18.812Z,14.4
2018-12-17T09:16:18.884Z,12.1
2018-12-17T09:18:18.592Z,15.8
2018-12-17T09:20:19.237Z,13.3
2018-12-17T09:22:18.843Z,14.1
2018-12-17T09:24:18.455Z,13.2
2018-12-17T09:26:18.687Z,14
2018-12-17T09:28:19.307Z,13.7
2018-12-17T09:30:18.913Z,15.2
2018-12-17T09:32:18.555Z,15.2
2018-12-17T09:34:19.189Z,14.8
2018-12-17T09:36:19.405Z,12.3
2018-12-17T09:38:19.025Z,13.3
2018-12-17T09:40:19.163Z,13.1
2018-12-17T09:42:18.785Z,12.3
2018-12-17T09:44:18.429Z,15.3
2018-12-17T09:46:18.658Z,14.1
2018-12-17T09:48:19.314Z,13.2
2018-12-17T09:50:18.950Z,14.4
2018-12-17T09:52:18.591Z,14.9
2018-12-17T09:54:19.211Z,14.6
2018-12-17T09:56:18.995Z,13.5
2018-12-17T09:58:18.629Z,14.1
2018-12-17T10:00:25.141Z,15.1
2018-12-17T10:02:19.347Z,14.8
2018-12-17T10:04:18.982Z,14.7
2018-12-17T10:06:18.798Z,14.4
2018-12-17T10:08:19.401Z,15.1
2018-12-17T10:10:18.463Z,14.6
2018-12-17T10:12:19.066Z,14.8
2018-12-17T10:14:18.699Z,13.2
2018-12-17T10:16:18.525Z,14.1
2018-12-17T10:18:19.197Z,14.2
2018-12-17T10:20:18.820Z,14.9
2018-12-17T10:22:18.424Z,13.3
2018-12-17T10:24:19.034Z,12.6
2018-12-17T10:26:18.433Z,14.5
2018-12-17T10:28:19.053Z,13.7
2018-12-17T10:30:18.681Z,15.2
2018-12-17T10:32:19.331Z,13.3
2018-12-17T10:34:18.933Z,13.2
2018-12-17T10:36:18.712Z,15.4
2018-12-17T10:38:19.355Z,12.8
2018-12-17T10:40:18.448Z,13.5
2018-12-17T10:42:19.098Z,14.4
2018-12-17T10:44:18.755Z,13.1
2018-12-17T10:46:18.853Z,14.8
2018-12-17T10:48:18.478Z,13.3
2018-12-17T10:50:19.118Z,14
2018-12-17T10:52:19.126Z,12.6
2018-12-17T10:54:18.751Z,15.5
2018-12-17T10:56:19.011Z,14.4
2018-12-17T10:58:18.662Z,14.3
2018-12-17T11:00:19.307Z,13.6
2018-12-17T11:02:18.983Z,14.4
2018-12-17T11:04:18.617Z,15.1
2018-12-17T11:06:19.362Z,14.1
2018-12-17T11:08:19.008Z,13.2
2018-12-17T11:10:19.062Z,15.8
2018-12-17T11:12:18.690Z,14.8
2018-12-17T11:14:19.373Z,11.5
2018-12-17T11:16:18.665Z,13
2018-12-17T11:18:19.360Z,14.3
2018-12-17T11:20:19.063Z,14.9
2018-12-17T11:22:18.695Z,15.5
2018-12-17T11:24:19.358Z,13.7
2018-12-17T11:26:19.109Z,14.6
2018-12-17T11:28:18.762Z,14.4
2018-12-17T11:30:19.420Z,15.1
2018-12-17T11:32:19.055Z,13.7
2018-12-17T11:34:18.705Z,12.7
2018-12-17T11:36:18.488Z,14
2018-12-17T11:38:19.112Z,13.2
2018-12-17T11:40:19.220Z,14.6
2018-12-17T11:42:18.822Z,14.5
2018-12-17T11:44:18.426Z,14.2
2018-12-17T11:46:18.655Z,13.4
2018-12-17T11:48:19.299Z,14.5
2018-12-17T11:50:18.923Z,14.9
2018-12-17T11:52:18.536Z,15.6
2018-12-17T11:54:19.178Z,14.1
2018-12-17T11:56:18.472Z,13.9
2018-12-17T11:58:19.105Z,14.8
2018-12-17T12:00:18.842Z,14.3
2018-12-17T12:02:18.510Z,14.6
2018-12-17T12:04:19.144Z,14.2
2018-12-17T12:06:19.075Z,14.4
2018-12-17T12:08:18.693Z,14.3
2018-12-17T12:10:18.777Z,13.5
2018-12-17T12:12:19.409Z,14.1
2018-12-17T12:14:19.058Z,14.7
2018-12-17T12:16:18.451Z,13.5
2018-12-17T12:18:19.165Z,12.7
2018-12-17T12:20:18.821Z,12.6
2018-12-17T12:22:18.468Z,13.5
2018-12-17T12:24:19.067Z,13.6
2018-12-17T12:26:18.704Z,13.3
2018-12-17T12:28:19.352Z,14.3
2018-12-17T12:30:18.990Z,13.6
2018-12-17T12:32:18.624Z,14.6
2018-12-17T12:34:19.256Z,14.9
2018-12-17T12:36:19.329Z,14.9
2018-12-17T12:38:18.995Z,13.1
2018-12-17T12:40:19.098Z,13
2018-12-17T12:42:18.720Z,13.3
2018-12-17T12:44:19.395Z,13.3
2018-12-17T12:46:18.648Z,14.4
2018-12-17T12:48:19.257Z,14
2018-12-17T12:50:18.881Z,15.3
2018-12-17T12:52:18.488Z,13.8
2018-12-17T12:54:19.129Z,14.7
2018-12-17T12:56:19.377Z,14.1
2018-12-17T12:58:18.982Z,14.2
2018-12-17T13:00:18.632Z,15.1
2018-12-17T13:02:19.251Z,13.6
2018-12-17T13:04:18.862Z,14.8
2018-12-17T13:06:18.637Z,15.4
2018-12-17T13:08:19.288Z,14.5
2018-12-17T13:10:19.431Z,13.1
2018-12-17T13:12:19.087Z,13.6
2018-12-17T13:14:18.727Z,13.7
2018-12-17T13:16:19.036Z,14.2
2018-12-17T13:18:18.753Z,15
2018-12-17T13:20:19.389Z,12.4
2018-12-17T13:22:19.030Z,13.1
2018-12-17T13:24:18.675Z,14
2018-12-17T13:26:18.926Z,15.4
2018-12-17T13:28:18.579Z,14.7
2018-12-17T13:30:19.215Z,15.3
2018-12-17T13:32:18.877Z,12.1
2018-12-17T13:34:18.523Z,14.6
2018-12-17T13:36:18.723Z,12.8
2018-12-17T13:38:19.348Z,12.5
2018-12-17T13:40:19.438Z,13.6
2018-12-17T13:42:19.050Z,12.9
2018-12-17T13:44:18.686Z,13.9
2018-12-17T13:46:18.555Z,15.2
2018-12-17T13:48:19.206Z,14.2
2018-12-17T13:50:18.876Z,14.7
2018-12-17T13:52:18.506Z,13.6
2018-12-17T13:54:19.141Z,15.1
2018-12-17T13:56:19.015Z,14.9
2018-12-17T13:58:18.656Z,12.9
2018-12-17T14:00:19.319Z,14.7
2018-12-17T14:02:18.958Z,14.1
2018-12-17T14:04:18.595Z,14
2018-12-17T14:06:19.359Z,13
2018-12-17T14:08:18.982Z,13.9
2018-12-17T14:10:19.216Z,13.5
2018-12-17T14:12:18.918Z,12.6
2018-12-17T14:14:18.597Z,13.6
2018-12-17T14:16:19.402Z,12.7
2018-12-17T14:18:19.109Z,12.7
2018-12-17T14:20:18.752Z,11.9
2018-12-17T14:22:19.369Z,12
2018-12-17T14:24:18.995Z,11.7
2018-12-17T14:26:19.230Z,10.6
2018-12-17T14:28:18.856Z,11.5
2018-12-17T14:30:18.493Z,12.2
2018-12-17T14:32:19.112Z,11.2
2018-12-17T14:34:18.725Z,10.9
2018-12-17T14:36:18.485Z,12.2
2018-12-17T14:38:19.131Z,12.5
2018-12-17T14:40:19.219Z,12.9
2018-12-17T14:42:18.832Z,10.9
2018-12-17T14:44:18.453Z,11.7
2018-12-17T14:46:18.673Z,11.1
2018-12-17T14:48:19.279Z,11
2018-12-17T14:50:18.947Z,11.9
2018-12-17T14:52:18.575Z,10.2
2018-12-17T14:54:19.199Z,11.1
2018-12-17T14:56:19.393Z,10.8
2018-12-17T14:58:19.061Z,11.9
2018-12-17T15:00:18.685Z,10
2018-12-17T15:02:19.302Z,9.1
2018-12-17T15:04:18.924Z,10.7
2018-12-17T15:06:18.764Z,10.6
2018-12-17T15:08:19.398Z,10.2
2018-12-17T15:10:18.540Z,10.6
2018-12-17T15:12:19.151Z,10
2018-12-17T15:14:18.780Z,11.4
2018-12-17T15:16:18.604Z,10.4
2018-12-17T15:18:19.348Z,11
2018-12-17T15:20:18.998Z,10
2018-12-17T15:22:18.683Z,8.8
2018-12-17T15:24:19.310Z,10.3
2018-12-17T15:26:18.704Z,10.4
2018-12-17T15:28:19.358Z,11
2018-12-17T15:30:19.044Z,10
2018-12-17T15:32:18.728Z,10.7
2018-12-17T15:34:19.361Z,9.7
2018-12-17T15:36:18.609Z,10.8
2018-12-17T15:38:19.245Z,11.4
2018-12-17T15:40:19.353Z,11.6
2018-12-17T15:42:19.035Z,11.6
2018-12-17T15:44:18.699Z,11.6
2018-12-17T15:46:19.216Z,9.7
2018-12-17T15:48:18.834Z,10.7
2018-12-17T15:50:18.475Z,10.7
2018-12-17T15:52:19.093Z,10.2
2018-12-17T15:54:18.743Z,10.4
2018-12-17T15:56:19.027Z,10.5
2018-12-17T15:58:18.666Z,9.5
2018-12-17T16:00:19.315Z,10.2
2018-12-17T16:02:18.937Z,9.6
2018-12-17T16:04:18.578Z,9.9
2018-12-17T16:06:19.420Z,11.6
2018-12-17T16:08:19.078Z,10.3
2018-12-17T16:10:19.168Z,10.3
2018-12-17T16:12:18.818Z,11.1
2018-12-17T16:14:18.459Z,11.4
2018-12-17T16:16:18.690Z,11.7
2018-12-17T16:18:19.415Z,8.7
2018-12-17T16:20:19.058Z,9.9
2018-12-17T16:22:18.686Z,9.1
2018-12-17T16:24:19.331Z,11
2018-12-17T16:26:18.707Z,10.3
2018-12-17T16:28:19.328Z,9.8
2018-12-17T16:30:18.943Z,10.2
2018-12-17T16:32:18.577Z,12
2018-12-17T16:34:19.201Z,11
2018-12-17T16:36:19.443Z,10
2018-12-17T16:38:19.059Z,10
2018-12-17T16:40:19.151Z,10.4
2018-12-17T16:42:18.775Z,8.8
2018-12-17T16:44:19.419Z,10.2
2018-12-17T16:46:19.241Z,12.2
2018-12-17T16:48:18.946Z,11.5
2018-12-17T16:50:18.637Z,10.5
2018-12-17T16:52:19.282Z,11.5
2018-12-17T16:54:18.953Z,10.6
2018-12-17T16:56:19.256Z,13.5
2018-12-17T16:58:18.859Z,11.5
2018-12-17T17:00:18.721Z,10.9
2018-12-17T17:02:19.358Z,9.7
2018-12-17T17:04:18.977Z,10.3
2018-12-17T17:06:19.317Z,11.6
2018-12-17T17:08:18.947Z,10.1
2018-12-17T17:10:19.058Z,9
2018-12-17T17:12:18.715Z,9.5
2018-12-17T17:14:19.334Z,10.3
2018-12-17T17:16:18.606Z,9.2
2018-12-17T17:18:19.313Z,10.7
2018-12-17T17:20:18.960Z,11.1
2018-12-17T17:22:18.609Z,10.4
2018-12-17T17:24:19.258Z,10.8
2018-12-17T17:26:19.119Z,9.8
2018-12-17T17:28:18.784Z,10.1
2018-12-17T17:30:19.461Z,10.3
2018-12-17T17:32:19.080Z,9.7
2018-12-17T17:34:18.731Z,10.6
2018-12-17T17:36:18.485Z,10.6
2018-12-17T17:38:19.089Z,10.6
2018-12-17T17:40:19.313Z,12.6
2018-12-17T17:42:18.927Z,12.1
2018-12-17T17:44:18.582Z,10.8
2018-12-17T17:46:18.816Z,10.1
2018-12-17T17:48:18.451Z,8.9
2018-12-17T17:50:19.135Z,10.4
2018-12-17T17:52:18.797Z,10.4
2018-12-17T17:54:18.439Z,11.3
2018-12-17T17:56:19.160Z,10.7
2018-12-17T17:58:18.825Z,12
2018-12-17T18:00:18.464Z,11.5
2018-12-17T18:02:19.195Z,9.9
2018-12-17T18:04:18.857Z,10.7
2018-12-17T18:06:19.108Z,10
2018-12-17T18:08:18.748Z,10.6
2018-12-17T18:10:18.863Z,11.4
2018-12-17T18:12:18.514Z,10.5
2018-12-17T18:14:19.134Z,10.2
2018-12-17T18:16:19.415Z,11.4
2018-12-17T18:18:19.145Z,10.4
2018-12-17T18:20:18.773Z,11.5
2018-12-17T18:22:19.440Z,11.1
2018-12-17T18:24:19.084Z,9.8
2018-12-17T18:26:19.321Z,10.9
2018-12-17T18:28:18.947Z,11.1
2018-12-17T18:30:18.643Z,11.5
2018-12-17T18:32:25.695Z,11.2
2018-12-17T18:34:18.871Z,11.5
2018-12-17T18:36:19.107Z,10.8
2018-12-17T18:38:18.731Z,10.7
2018-12-17T18:40:18.848Z,9.8
2018-12-17T18:42:18.475Z,9.8
2018-12-17T18:44:19.109Z,10.6
2018-12-17T18:46:19.418Z,10.2
2018-12-17T18:48:19.078Z,9.7
2018-12-17T18:50:18.740Z,10.7
2018-12-17T18:52:19.379Z,9.6
2018-12-17T18:54:18.999Z,10.9
2018-12-17T18:56:18.932Z,11.6
2018-12-17T18:58:18.586Z,9.4
2018-12-17T19:00:19.231Z,9
2018-12-17T19:02:18.869Z,11.1
2018-12-17T19:04:18.528Z,11.4
2018-12-17T19:06:18.932Z,10.9
2018-12-17T19:08:18.570Z,11.6
2018-12-17T19:10:18.772Z,12.5
2018-12-17T19:12:19.396Z,11.2
2018-12-17T19:14:19.048Z,9.9
2018-12-17T19:16:19.398Z,9.8
2018-12-17T19:18:19.085Z,10.9
2018-12-17T19:20:18.748Z,11.7
2018-12-17T19:22:19.390Z,12.4
2018-12-17T19:24:19.039Z,11
2018-12-17T19:26:19.378Z,11.6
2018-12-17T19:28:19.046Z,11.8
2018-12-17T19:30:18.703Z,11
2018-12-17T19:32:19.396Z,11.5
2018-12-17T19:34:19.041Z,11.8
2018-12-17T19:36:19.326Z,11.2
2018-12-17T19:38:18.985Z,11.5
2018-12-17T19:40:19.071Z,10.4
2018-12-17T19:42:18.689Z,10.6
2018-12-17T19:44:19.324Z,11
2018-12-17T19:46:19.171Z,10.2
2018-12-17T19:48:18.790Z,10.1
2018-12-17T19:50:18.421Z,11.4
2018-12-17T19:52:19.070Z,10.6
2018-12-17T19:54:18.700Z,10.6
2018-12-17T19:56:18.965Z,10.8
2018-12-17T19:58:18.577Z,11
2018-12-17T20:00:19.312Z,11.1
2018-12-17T20:02:18.972Z,11.6
2018-12-17T20:04:18.593Z,9.6
2018-12-17T20:06:18.878Z,10.7
2018-12-17T20:08:18.538Z,10
2018-12-17T20:10:18.604Z,11.3
2018-12-17T20:12:19.212Z,11
2018-12-17T20:14:18.873Z,10.8
2018-12-17T20:16:19.260Z,11
2018-12-17T20:18:18.956Z,11
2018-12-17T20:20:18.631Z,11.3
2018-12-17T20:22:19.256Z,10.2
2018-12-17T20:24:18.923Z,11.2
2018-12-17T20:26:18.909Z,9.6
2018-12-17T20:28:18.546Z,10.3
2018-12-17T20:30:19.189Z,10.2
2018-12-17T20:32:18.827Z,11.8
2018-12-17T20:34:18.440Z,11.5
2018-12-17T20:36:19.233Z,10.5
2018-12-17T20:38:18.858Z,10.9
2018-12-17T20:40:18.958Z,10.1
2018-12-17T20:42:18.590Z,11.9
2018-12-17T20:44:19.216Z,10.7
2018-12-17T20:46:18.443Z,11.7
2018-12-17T20:48:19.110Z,10
2018-12-17T20:50:18.921Z,11
2018-12-17T20:52:18.522Z,10.9
2018-12-17T20:54:19.159Z,11.5
2018-12-17T20:56:18.511Z,11.4
2018-12-17T20:58:19.145Z,10.6
2018-12-17T21:00:18.785Z,11.1
2018-12-17T21:02:19.406Z,10.4
2018-12-17T21:04:19.019Z,11.5
2018-12-17T21:06:19.262Z,11.1
2018-12-17T21:08:18.893Z,10.1
2018-12-17T21:10:19.051Z,9
2018-12-17T21:12:18.702Z,11
2018-12-17T21:14:23.554Z,9.5
2018-12-17T21:16:19.436Z,10.3
2018-12-17T21:18:19.179Z,10.5
2018-12-17T21:20:18.811Z,11.8
2018-12-17T21:22:18.428Z,11.1
2018-12-17T21:24:19.067Z,9.6
2018-12-17T21:26:18.608Z,11.4
2018-12-17T21:28:19.231Z,11.1
2018-12-17T21:30:19.040Z,10.7
2018-12-17T21:32:18.661Z,9.7
2018-12-17T21:34:19.286Z,10.2
2018-12-17T21:36:18.654Z,8.8
2018-12-17T21:38:19.290Z,9.8
2018-12-17T21:40:18.412Z,9.3
2018-12-17T21:42:19.046Z,9.2
2018-12-17T21:44:18.668Z,9.6
2018-12-17T21:46:18.945Z,10.6
2018-12-17T21:48:18.562Z,9.2
2018-12-17T21:50:19.223Z,10.3
2018-12-17T21:52:18.908Z,8.6
2018-12-17T21:54:18.570Z,8.1
2018-12-17T21:56:19.034Z,9.5
2018-12-17T21:58:18.728Z,10.2
2018-12-17T22:00:19.394Z,8.9
2018-12-17T22:02:19.048Z,9.7
2018-12-17T22:04:19.794Z,9
2018-12-17T22:06:18.720Z,8.7
2018-12-17T22:08:19.342Z,9.3
2018-12-17T22:10:19.423Z,8.3
2018-12-17T22:12:19.051Z,9
2018-12-17T22:14:18.709Z,7.8
2018-12-17T22:16:18.489Z,8.4
2018-12-17T22:18:19.210Z,9.3
2018-12-17T22:20:18.842Z,9.1
2018-12-17T22:22:18.499Z,9.9
2018-12-17T22:24:19.120Z,8.9
2018-12-17T22:26:18.560Z,9.6
2018-12-17T22:28:19.193Z,8.3
2018-12-17T22:30:18.847Z,8.1
2018-12-17T22:32:18.454Z,9
2018-12-17T22:34:19.089Z,8.9
2018-12-17T22:36:18.486Z,9.5
2018-12-17T22:38:19.081Z,9.1
2018-12-17T22:40:19.164Z,9.2
2018-12-17T22:42:18.786Z,8.7
2018-12-17T22:44:19.419Z,8.2
2018-12-17T22:46:18.739Z,9.2
2018-12-17T22:48:19.360Z,7.6
2018-12-17T22:50:18.997Z,9
2018-12-17T22:52:18.656Z,8.8
2018-12-17T22:54:19.274Z,9.2
2018-12-17T22:56:18.719Z,8.9
2018-12-17T22:58:19.383Z,7.2
2018-12-17T23:00:19.049Z,7.1
2018-12-17T23:02:18.678Z,8.4
2018-12-17T23:04:19.340Z,7.6
2018-12-17T23:06:19.161Z,9.1
2018-12-17T23:08:18.794Z,7.9
2018-12-17T23:10:18.917Z,7.1
2018-12-17T23:12:18.530Z,7.5
2018-12-17T23:14:19.175Z,8.5
2018-12-17T23:16:18.953Z,8.7
2018-12-17T23:18:18.663Z,9.1
2018-12-17T23:20:19.498Z,6.9
2018-12-17T23:22:19.142Z,7.3
2018-12-17T23:24:18.763Z,8.1
2018-12-17T23:26:18.494Z,8
2018-12-17T23:28:19.129Z,8.2
2018-12-17T23:30:18.815Z,7.5
2018-12-17T23:32:18.450Z,7.2
2018-12-17T23:34:19.089Z,8.8
2018-12-17T23:36:18.918Z,8
2018-12-17T23:38:18.530Z,7.4
2018-12-17T23:40:18.704Z,7.1
2018-12-17T23:42:19.329Z,7.8
2018-12-17T23:44:18.944Z,7.2
2018-12-17T23:46:18.712Z,7.2
2018-12-17T23:48:19.332Z,8
2018-12-17T23:50:18.983Z,6.6
2018-12-17T23:52:18.651Z,7.4
2018-12-17T23:54:19.299Z,7.2
2018-12-17T23:56:19.106Z,6.9
2018-12-17T23:58:18.751Z,8.7
